Terminal Aerodrome Forecast
Issued by NWS

Home | Current Version | Previous Version | Text Only | Print | Product List | Glossary On
Versions: 1 2 3 4 5 6 7 8 9 10 11 12 13 14 15 16 17 18 19 20 21 22 23 24 25 26 27 28
000
FTUS44 KHGX 090520
TAFLBX
TAF
KLBX 090520Z 0906/1006 VRB04KT P6SM SCT250
     FM091300 VRB03KT P6SM VCSH SCT025
     FM091500 VRB07KT P6SM VCTS BKN030CB OVC250 PROB30 0915/0918
      TSRA
     FM091800 VRB05KT P6SM VCSH SCT035 OVC250
     FM091900 17009KT P6SM FEW035 BKN250
     FM100200 17003KT P6SM FEW250=

USA.gov is the U.S. government's official web portal to all federal, state and local government web resources and services.